Terminal Aerodrome Forecast
Issued by NWS Bismarck, ND

Home | Current Version | Previous Version | Graphics & Text | Print | Product List | Glossary On
Versions: 1 2 3 4 5 6 7 8 9 10 11 12 13 14 15 16 17 18 19 20 21 22 23
000
FTUS43 KBIS 142330
TAFBIS
TAF
KBIS 142330Z 1500/1524 28009KT P6SM BKN150
     FM150600 30007KT P6SM -SN OVC015
     FM150800 35012KT 3SM -SN OVC012
      TEMPO 1508/1512 1SM -SN OVC008
     FM151200 36016G24KT 5SM -SN OVC018
     FM151500 35013G21KT P6SM BKN020
     FM151900 33013KT P6SM SCT025 BKN200=

USA.gov is the U.S. government's official web portal to all federal, state and local government web resources and services.